Aviation Digital Data Service (ADDS)

Output produced by TAFs form (2159 UTC 23 October 2014)
found at http://www.aviationweather.gov/adds/tafs/
 
KSBY 231737Z 2318/2418 31015G20KT P6SM BKN035 
     FM232300 32010G16KT P6SM SCT040 
     FM240400 31010KT P6SM SCT050 
     FM241400 31015G20KT P6SM FEW050 SCT200